createdAt,value
2018-03-06T00:01:46.272Z,29.70
2018-03-06T00:04:13.271Z,50.07
2018-03-06T00:06:40.605Z,41.20
2018-03-06T00:09:06.870Z,35.47
2018-03-06T00:11:33.130Z,28.90
2018-03-06T00:13:59.414Z,31.70
2018-03-06T00:16:25.767Z,33.03
2018-03-06T00:18:52.058Z,33.17
2018-03-06T00:21:18.306Z,29.70
2018-03-06T00:23:44.652Z,27.30
2018-03-06T00:26:10.914Z,34.50
2018-03-06T00:28:37.981Z,35.37
2018-03-06T00:31:04.278Z,30.40
2018-03-06T00:33:30.529Z,31.13
2018-03-06T00:35:57.553Z,31.47
2018-03-06T00:38:23.889Z,34.63
2018-03-06T00:40:50.831Z,37.00
2018-03-06T00:43:17.168Z,45.97
2018-03-06T00:45:43.397Z,44.63
2018-03-06T00:48:09.703Z,41.00
2018-03-06T00:50:35.985Z,32.07
2018-03-06T00:53:03.058Z,37.50
2018-03-06T00:55:30.346Z,38.77
2018-03-06T00:57:57.562Z,37.07
2018-03-06T01:00:23.816Z,41.73
2018-03-06T01:02:51.744Z,42.93
2018-03-06T01:05:18.752Z,40.50
2018-03-06T01:07:45.046Z,39.17
2018-03-06T01:10:11.297Z,39.93
2018-03-06T01:12:37.554Z,43.50
2018-03-06T01:15:04.215Z,45.50
2018-03-06T01:17:31.044Z,44.93
2018-03-06T01:19:58.093Z,48.07
2018-03-06T01:22:24.363Z,46.27
2018-03-06T01:24:54.156Z,54.37
2018-03-06T01:27:21.223Z,50.23
2018-03-06T01:29:49.024Z,56.00
2018-03-06T01:32:15.317Z,49.23
2018-03-06T01:34:42.318Z,54.33
2018-03-06T01:37:08.573Z,51.70
2018-03-06T01:42:07.302Z,59.03
2018-03-06T01:44:33.583Z,55.83
2018-03-06T01:46:59.854Z,49.13
2018-03-06T01:49:28.673Z,52.80
2018-03-06T01:52:05.119Z,54.63
2018-03-06T01:54:33.861Z,63.17
2018-03-06T01:57:04.864Z,51.03
2018-03-06T01:59:33.968Z,53.30
2018-03-06T02:02:00.979Z,53.37
2018-03-06T02:04:31.490Z,53.50
2018-03-06T02:07:02.677Z,59.30
2018-03-06T02:09:28.977Z,54.53
2018-03-06T02:11:56.120Z,53.03
2018-03-06T02:16:53.944Z,53.17
2018-03-06T02:19:20.963Z,56.23
2018-03-06T02:21:49.770Z,56.30
2018-03-06T02:24:16.833Z,58.57
2018-03-06T02:26:43.099Z,53.63
2018-03-06T02:29:10.134Z,58.53
2018-03-06T02:31:37.960Z,55.97
2018-03-06T02:34:04.290Z,57.63
2018-03-06T02:36:31.301Z,59.67
2018-03-06T02:38:57.584Z,62.07
2018-03-06T02:41:24.106Z,62.60
2018-03-06T02:43:50.457Z,78.23
2018-03-06T02:46:16.747Z,118.53
2018-03-06T02:48:43.002Z,119.10
2018-03-06T02:51:15.270Z,102.93
2018-03-06T02:53:44.337Z,80.10
2018-03-06T02:56:10.598Z,70.77
2018-03-06T02:58:40.090Z,72.13
2018-03-06T03:01:06.356Z,72.90
2018-03-06T03:03:34.299Z,72.00
2018-03-06T03:06:01.970Z,69.87
2018-03-06T03:08:29.699Z,71.33
2018-03-06T03:10:56.738Z,69.57
2018-03-06T03:15:57.231Z,64.53
2018-03-06T03:18:23.867Z,68.87
2018-03-06T03:20:50.895Z,62.60
2018-03-06T03:23:17.177Z,69.80
2018-03-06T03:25:43.450Z,68.83
2018-03-06T03:28:09.739Z,65.10
2018-03-06T03:30:36.002Z,72.37
2018-03-06T03:33:03.014Z,68.50
2018-03-06T03:35:30.026Z,73.07
2018-03-06T03:37:56.286Z,82.77
2018-03-06T03:40:22.578Z,74.80
2018-03-06T03:42:49.575Z,85.43
2018-03-06T03:45:15.861Z,79.83
2018-03-06T03:47:42.878Z,76.90
2018-03-06T03:50:09.179Z,83.70
2018-03-06T03:52:36.189Z,83.00
2018-03-06T03:55:02.477Z,86.73
2018-03-06T03:57:28.762Z,79.17
2018-03-06T03:59:55.029Z,85.97
2018-03-06T04:02:21.295Z,82.90
2018-03-06T04:04:53.712Z,81.87
2018-03-06T04:07:20.503Z,89.53
2018-03-06T04:09:47.180Z,92.10
2018-03-06T04:12:13.463Z,92.33
2018-03-06T04:14:41.010Z,89.63
2018-03-06T04:17:08.122Z,84.80
2018-03-06T04:19:34.394Z,96.93
2018-03-06T04:22:01.419Z,92.27
2018-03-06T04:24:28.422Z,85.97
2018-03-06T04:26:54.693Z,85.70
2018-03-06T04:29:20.974Z,88.20
2018-03-06T04:31:47.961Z,106.90
2018-03-06T04:34:14.250Z,97.60
2018-03-06T04:36:40.504Z,103.13
2018-03-06T04:39:06.813Z,103.03
2018-03-06T04:41:33.060Z,98.10
2018-03-06T04:46:43.256Z,97.30
2018-03-06T04:49:09.508Z,101.80
2018-03-06T04:51:35.821Z,102.10
2018-03-06T04:54:02.116Z,98.13
2018-03-06T04:56:28.388Z,110.23
2018-03-06T04:58:54.656Z,93.90
2018-03-06T05:01:20.905Z,116.13
2018-03-06T05:03:47.973Z,102.43
2018-03-06T05:06:14.344Z,99.10
2018-03-06T05:08:40.598Z,108.33
2018-03-06T05:11:06.891Z,105.07
2018-03-06T05:13:33.117Z,99.90
2018-03-06T05:15:59.398Z,101.70
2018-03-06T05:18:25.649Z,102.67
2018-03-06T05:20:51.900Z,95.33
2018-03-06T05:23:18.176Z,112.03
2018-03-06T05:25:44.428Z,111.33
2018-03-06T05:28:10.714Z,106.87
2018-03-06T05:30:36.969Z,105.63
2018-03-06T05:33:03.245Z,99.07
2018-03-06T05:35:29.553Z,118.57
2018-03-06T05:37:55.796Z,103.77
2018-03-06T05:40:22.053Z,104.87
2018-03-06T05:42:48.352Z,103.93
2018-03-06T05:45:14.621Z,115.90
2018-03-06T05:47:40.887Z,117.83
2018-03-06T05:50:07.224Z,107.57
2018-03-06T05:52:33.469Z,99.53
2018-03-06T05:54:59.801Z,103.73
2018-03-06T05:57:26.057Z,102.57
2018-03-06T05:59:52.343Z,113.83
2018-03-06T06:02:18.642Z,103.53
2018-03-06T06:04:45.110Z,102.77
2018-03-06T06:07:11.453Z,103.53
2018-03-06T06:09:38.012Z,110.00
2018-03-06T06:12:04.338Z,120.47
2018-03-06T06:14:31.082Z,125.17
2018-03-06T06:16:58.094Z,117.67
2018-03-06T06:19:24.367Z,120.93
2018-03-06T06:21:50.709Z,131.70
2018-03-06T06:24:17.041Z,126.50
2018-03-06T06:26:43.302Z,119.77
2018-03-06T06:29:10.309Z,118.73
2018-03-06T06:31:36.679Z,114.77
2018-03-06T06:34:03.286Z,109.73
2018-03-06T06:36:30.563Z,111.63
2018-03-06T06:38:56.942Z,134.70
2018-03-06T06:41:23.186Z,120.83
2018-03-06T06:43:50.201Z,118.23
2018-03-06T06:46:16.446Z,123.57
2018-03-06T06:48:42.693Z,119.27
2018-03-06T06:51:08.957Z,121.43
2018-03-06T06:53:35.257Z,126.30
2018-03-06T06:56:01.516Z,135.93
2018-03-06T06:58:27.759Z,123.33
2018-03-06T07:00:54.733Z,114.73
2018-03-06T07:03:21.011Z,114.87
2018-03-06T07:05:48.010Z,123.43
2018-03-06T07:08:14.736Z,128.73
2018-03-06T07:10:41.753Z,113.73
2018-03-06T07:13:08.478Z,125.23
2018-03-06T07:15:34.761Z,119.73
2018-03-06T07:18:01.028Z,120.57
2018-03-06T07:20:28.291Z,137.10
2018-03-06T07:22:54.562Z,119.33
2018-03-06T07:25:20.825Z,125.33
2018-03-06T07:27:47.833Z,126.27
2018-03-06T07:30:14.074Z,116.90
2018-03-06T07:32:41.093Z,120.20
2018-03-06T07:35:07.337Z,101.37
2018-03-06T07:37:33.586Z,119.30
2018-03-06T07:39:59.848Z,125.07
2018-03-06T07:42:26.820Z,116.27
2018-03-06T07:44:53.081Z,133.57
2018-03-06T07:47:19.317Z,115.97
2018-03-06T07:49:45.569Z,113.73
2018-03-06T07:52:11.851Z,112.33
2018-03-06T07:54:38.154Z,131.37
2018-03-06T07:57:05.174Z,123.13
2018-03-06T07:59:32.162Z,122.00
2018-03-06T08:01:58.401Z,128.97
2018-03-06T08:04:24.667Z,141.00
2018-03-06T08:06:50.906Z,133.83
2018-03-06T08:09:17.178Z,131.83
2018-03-06T08:11:44.246Z,127.53
2018-03-06T08:14:11.345Z,123.77
2018-03-06T08:16:38.345Z,135.00
2018-03-06T08:19:04.586Z,121.73
2018-03-06T08:21:31.715Z,125.47
2018-03-06T08:23:58.033Z,120.83
2018-03-06T08:26:24.226Z,108.40
2018-03-06T08:28:50.497Z,128.70
2018-03-06T08:31:16.743Z,116.80
2018-03-06T08:33:43.026Z,124.77
2018-03-06T08:36:09.292Z,123.87
2018-03-06T08:38:35.541Z,124.97
2018-03-06T08:41:01.835Z,117.47
2018-03-06T08:43:28.852Z,128.67
2018-03-06T08:45:55.133Z,122.23
2018-03-06T08:48:21.373Z,122.33
2018-03-06T08:50:47.610Z,138.80
2018-03-06T08:53:14.614Z,111.77
2018-03-06T08:55:40.896Z,120.93
2018-03-06T08:58:07.168Z,118.83
2018-03-06T09:00:34.147Z,121.33
2018-03-06T09:03:00.388Z,114.37
2018-03-06T09:05:26.658Z,114.67
2018-03-06T09:07:52.898Z,108.27
2018-03-06T09:10:19.180Z,111.43
2018-03-06T09:12:45.453Z,110.03
2018-03-06T09:15:11.685Z,105.70
2018-03-06T09:17:38.687Z,116.43
2018-03-06T09:20:04.960Z,113.90
2018-03-06T09:22:31.233Z,109.70
2018-03-06T09:24:57.472Z,104.70
2018-03-06T09:27:24.462Z,104.83
2018-03-06T09:29:50.716Z,107.00
2018-03-06T09:32:17.697Z,112.70
2018-03-06T09:34:43.959Z,113.80
2018-03-06T09:37:10.994Z,114.17
2018-03-06T09:39:37.973Z,116.97
2018-03-06T09:42:04.241Z,119.77
2018-03-06T09:44:31.234Z,113.70
2018-03-06T09:46:57.490Z,110.63
2018-03-06T09:49:24.494Z,113.17
2018-03-06T09:51:50.776Z,114.53
2018-03-06T09:54:17.017Z,103.47
2018-03-06T09:56:43.310Z,112.23
2018-03-06T09:59:09.548Z,107.80
2018-03-06T10:01:35.784Z,119.47
2018-03-06T10:04:02.814Z,111.77
2018-03-06T10:06:29.814Z,109.60
2018-03-06T10:08:56.073Z,104.87
2018-03-06T10:11:23.060Z,117.77
2018-03-06T10:13:49.301Z,104.90
2018-03-06T10:16:16.316Z,99.07
2018-03-06T10:18:42.580Z,114.70
2018-03-06T10:21:08.852Z,110.33
2018-03-06T10:23:35.101Z,105.77
2018-03-06T10:26:01.366Z,105.23
2018-03-06T10:28:27.631Z,117.23
2018-03-06T10:30:53.865Z,110.20
2018-03-06T10:33:20.125Z,108.83
2018-03-06T10:35:46.373Z,104.37
2018-03-06T10:38:12.610Z,107.97
2018-03-06T10:40:38.857Z,105.60
2018-03-06T10:43:05.100Z,111.20
2018-03-06T10:45:32.122Z,106.97
2018-03-06T10:47:58.378Z,101.00
2018-03-06T10:50:24.625Z,100.43
2018-03-06T10:52:50.885Z,111.97
2018-03-06T10:55:17.879Z,93.83
2018-03-06T10:57:44.162Z,100.33
2018-03-06T11:00:10.434Z,94.03
2018-03-06T11:02:42.401Z,110.17
2018-03-06T11:05:08.670Z,98.10
2018-03-06T11:07:34.901Z,137.30
2018-03-06T11:10:01.933Z,90.97
2018-03-06T11:12:28.924Z,97.30
2018-03-06T11:14:55.148Z,88.77
2018-03-06T11:17:21.417Z,121.40
2018-03-06T11:19:47.658Z,178.20
2018-03-06T11:22:13.908Z,85.27
2018-03-06T11:24:40.204Z,90.90
2018-03-06T11:27:06.414Z,93.17
2018-03-06T11:29:32.677Z,84.43
2018-03-06T11:31:59.684Z,131.37
2018-03-06T11:34:25.975Z,84.13
2018-03-06T11:36:52.225Z,95.23
2018-03-06T11:39:18.470Z,77.93
2018-03-06T11:41:44.728Z,75.53
2018-03-06T11:44:11.104Z,86.63
2018-03-06T11:46:37.369Z,83.20
2018-03-06T11:49:03.617Z,88.73
2018-03-06T11:51:29.848Z,75.37
2018-03-06T11:53:56.121Z,82.17
2018-03-06T11:56:22.372Z,85.37
2018-03-06T11:58:48.657Z,91.45
2018-03-06T12:01:14.902Z,85.93
2018-03-06T12:03:41.148Z,85.40
2018-03-06T12:06:07.438Z,87.40
2018-03-06T12:08:33.709Z,94.10
2018-03-06T12:10:59.981Z,94.93
2018-03-06T12:13:26.228Z,99.97
2018-03-06T12:15:52.491Z,94.20
2018-03-06T12:18:18.772Z,91.07
2018-03-06T12:20:45.019Z,89.18
2018-03-06T12:23:11.342Z,85.97
2018-03-06T12:25:37.590Z,83.37
2018-03-06T12:28:03.834Z,83.68
2018-03-06T12:30:30.114Z,96.47
2018-03-06T12:32:56.377Z,93.32
2018-03-06T12:35:23.390Z,96.25
2018-03-06T12:37:49.642Z,91.72
2018-03-06T12:40:15.889Z,83.32
2018-03-06T12:42:42.176Z,85.00
2018-03-06T12:45:08.420Z,97.62
2018-03-06T12:47:34.684Z,85.40
2018-03-06T12:50:01.686Z,86.30
2018-03-06T12:52:27.928Z,91.15
2018-03-06T12:54:54.961Z,85.97
2018-03-06T12:57:21.945Z,86.43
2018-03-06T12:59:48.230Z,88.20
2018-03-06T13:02:14.489Z,84.90
2018-03-06T13:04:40.769Z,78.20
2018-03-06T13:07:07.085Z,84.53
2018-03-06T13:09:34.033Z,83.75
2018-03-06T13:12:00.310Z,81.07
2018-03-06T13:14:26.550Z,75.10
2018-03-06T13:16:52.805Z,72.18
2018-03-06T13:19:19.078Z,80.00
2018-03-06T13:21:45.312Z,84.45
2018-03-06T13:24:11.582Z,79.55
2018-03-06T13:26:37.821Z,79.47
2018-03-06T13:29:04.071Z,77.25
2018-03-06T13:31:30.336Z,75.60
2018-03-06T13:33:56.569Z,81.60
2018-03-06T13:36:22.816Z,74.93
2018-03-06T13:38:49.075Z,79.95
2018-03-06T13:41:15.362Z,77.78
2018-03-06T13:43:42.345Z,72.93
2018-03-06T13:46:08.625Z,77.32
2018-03-06T13:48:35.605Z,79.97
2018-03-06T13:51:01.902Z,75.12
2018-03-06T13:53:28.153Z,88.12
2018-03-06T13:55:54.381Z,74.10
2018-03-06T13:58:21.375Z,76.72
2018-03-06T14:00:47.667Z,76.72
2018-03-06T14:03:13.929Z,80.25
2018-03-06T14:05:40.165Z,73.03
2018-03-06T14:08:07.145Z,76.95
2018-03-06T14:10:33.410Z,64.70
2018-03-06T14:13:00.389Z,68.97
2018-03-06T14:15:26.657Z,74.90
2018-03-06T14:17:52.895Z,72.78
2018-03-06T14:20:19.138Z,78.07
2018-03-06T14:22:45.417Z,79.10
2018-03-06T14:25:11.656Z,76.55
2018-03-06T14:27:37.925Z,73.03
2018-03-06T14:30:05.078Z,72.45
2018-03-06T14:32:31.326Z,84.60
2018-03-06T14:34:57.589Z,75.37
2018-03-06T14:37:24.592Z,77.57
2018-03-06T14:39:50.844Z,72.15
2018-03-06T14:42:17.829Z,71.75
2018-03-06T14:44:44.078Z,75.65
2018-03-06T14:47:11.077Z,79.93
2018-03-06T14:49:37.325Z,75.57
2018-03-06T14:52:04.336Z,80.10
2018-03-06T14:54:30.585Z,72.67
2018-03-06T14:56:56.824Z,79.50
2018-03-06T14:59:23.097Z,86.27
2018-03-06T15:01:50.119Z,84.93
2018-03-06T15:04:16.381Z,81.73
2018-03-06T15:06:42.646Z,80.27
2018-03-06T15:09:08.878Z,77.03
2018-03-06T15:11:35.881Z,89.03
2018-03-06T15:14:02.126Z,77.00
2018-03-06T15:16:29.132Z,83.27
2018-03-06T15:18:55.389Z,85.17
2018-03-06T15:21:21.630Z,85.23
2018-03-06T15:23:47.894Z,96.43
2018-03-06T15:26:14.885Z,100.73
2018-03-06T15:28:41.150Z,97.23
2018-03-06T15:31:08.178Z,95.47
2018-03-06T15:33:34.422Z,96.27
2018-03-06T15:36:00.689Z,95.23
2018-03-06T15:38:26.954Z,94.23
2018-03-06T15:40:53.217Z,94.97
2018-03-06T15:43:19.453Z,99.80
2018-03-06T15:45:46.435Z,100.53
2018-03-06T15:48:12.700Z,94.60
2018-03-06T15:50:38.950Z,97.93
2018-03-06T15:53:05.207Z,103.83
2018-03-06T15:55:31.448Z,95.97
2018-03-06T15:57:58.424Z,105.57
2018-03-06T16:00:24.701Z,110.10
2018-03-06T16:02:50.981Z,97.73
2018-03-06T16:05:17.245Z,93.63
2018-03-06T16:07:43.502Z,91.93
2018-03-06T16:10:09.744Z,104.10
2018-03-06T16:12:36.753Z,97.80
2018-03-06T16:15:03.007Z,98.53
2018-03-06T16:17:29.273Z,88.10
2018-03-06T16:19:55.509Z,97.17
2018-03-06T16:22:21.761Z,91.20
2018-03-06T16:24:48.018Z,89.70
2018-03-06T16:27:14.257Z,86.63
2018-03-06T16:29:40.512Z,98.73
2018-03-06T16:32:06.762Z,94.13
2018-03-06T16:34:33.001Z,88.93
2018-03-06T16:36:59.282Z,100.30
2018-03-06T16:39:25.529Z,88.30
2018-03-06T16:41:51.790Z,95.13
2018-03-06T16:44:18.036Z,139.00
2018-03-06T16:46:44.296Z,158.60
2018-03-06T16:49:11.306Z,141.43
2018-03-06T16:51:37.548Z,102.00
2018-03-06T16:54:04.540Z,113.23
2018-03-06T16:56:30.774Z,104.47
2018-03-06T16:58:57.053Z,119.43
2018-03-06T17:01:23.311Z,107.37
2018-03-06T17:03:50.478Z,105.43
2018-03-06T17:06:16.736Z,117.50
2018-03-06T17:08:42.968Z,109.67
2018-03-06T17:11:09.213Z,108.77
2018-03-06T17:13:35.481Z,115.20
2018-03-06T17:16:01.876Z,114.90
2018-03-06T17:18:28.673Z,134.03
2018-03-06T17:20:54.928Z,109.67
2018-03-06T17:23:21.202Z,116.90
2018-03-06T17:25:48.073Z,123.50
2018-03-06T17:28:14.345Z,118.97
2018-03-06T17:30:40.617Z,110.63
2018-03-06T17:33:06.877Z,102.30
2018-03-06T17:35:33.125Z,125.57
2018-03-06T17:37:59.698Z,105.77
2018-03-06T17:40:26.016Z,100.27
2018-03-06T17:42:52.986Z,117.63
2018-03-06T17:45:19.257Z,129.60
2018-03-06T17:47:45.638Z,160.20
2018-03-06T17:50:12.204Z,130.60
2018-03-06T17:52:38.506Z,133.10
2018-03-06T17:55:05.492Z,122.60
2018-03-06T17:57:31.813Z,114.40
2018-03-06T17:59:58.028Z,113.30
2018-03-06T18:02:24.270Z,101.60
2018-03-06T18:04:50.633Z,108.40
2018-03-06T18:07:16.906Z,109.53
2018-03-06T18:09:43.926Z,148.67
2018-03-06T18:12:10.193Z,121.47
2018-03-06T18:14:36.440Z,107.40
2018-03-06T18:17:02.752Z,111.87
2018-03-06T18:19:29.013Z,119.70
2018-03-06T18:21:56.120Z,125.60
2018-03-06T18:24:22.532Z,123.17
2018-03-06T18:26:48.916Z,131.93
2018-03-06T18:29:15.316Z,120.67
2018-03-06T18:31:41.731Z,112.53
2018-03-06T18:34:08.032Z,111.13
2018-03-06T18:36:35.160Z,114.57
2018-03-06T18:39:02.367Z,115.57
2018-03-06T18:41:28.843Z,115.77
2018-03-06T18:43:55.320Z,117.53
2018-03-06T18:46:21.673Z,112.50
2018-03-06T18:48:47.994Z,126.77
2018-03-06T18:51:14.351Z,110.37
2018-03-06T18:53:40.795Z,112.03
2018-03-06T18:56:08.047Z,130.40
2018-03-06T18:58:35.349Z,117.57
2018-03-06T19:01:13.832Z,123.47
2018-03-06T19:03:52.332Z,118.73
2018-03-06T19:06:20.722Z,120.17
2018-03-06T19:08:47.000Z,124.40
2018-03-06T19:11:13.298Z,121.73
2018-03-06T19:13:39.664Z,114.83
2018-03-06T19:16:06.071Z,112.77
2018-03-06T19:18:32.485Z,120.37
2018-03-06T19:20:58.918Z,128.07
2018-03-06T19:23:25.391Z,136.23
2018-03-06T19:25:52.532Z,112.60
2018-03-06T19:28:18.909Z,114.43
2018-03-06T19:30:45.272Z,126.13
2018-03-06T19:33:11.813Z,117.33
2018-03-06T19:35:38.717Z,120.80
2018-03-06T19:38:05.006Z,126.30
2018-03-06T19:40:31.488Z,121.60
2018-03-06T19:42:58.061Z,125.90
2018-03-06T19:45:25.357Z,148.60
2018-03-06T19:47:51.816Z,146.20
2018-03-06T19:50:18.210Z,155.43
2018-03-06T19:52:44.605Z,135.43
2018-03-06T19:55:10.975Z,147.53
2018-03-06T19:57:37.476Z,168.97
2018-03-06T20:00:04.814Z,152.03
2018-03-06T20:02:31.992Z,141.00
2018-03-06T20:04:58.642Z,148.63
2018-03-06T20:07:26.722Z,128.57
2018-03-06T20:09:57.296Z,135.47
2018-03-06T20:12:25.721Z,144.03
2018-03-06T20:14:58.487Z,138.67
2018-03-06T20:17:25.731Z,151.20
2018-03-06T20:19:52.832Z,142.40
2018-03-06T20:22:19.567Z,130.17
2018-03-06T20:24:52.636Z,137.43
2018-03-06T20:27:20.260Z,134.37
2018-03-06T20:29:57.572Z,125.10
2018-03-06T20:32:30.474Z,139.00
2018-03-06T20:34:57.953Z,123.07
2018-03-06T20:37:24.949Z,117.77
2018-03-06T20:39:58.328Z,127.57
2018-03-06T20:42:26.521Z,130.70
2018-03-06T20:44:53.414Z,137.80
2018-03-06T20:47:22.149Z,130.40
2018-03-06T20:49:48.750Z,130.13
2018-03-06T20:52:15.426Z,132.30
2018-03-06T20:54:48.307Z,123.93
2018-03-06T20:57:14.967Z,128.87
2018-03-06T20:59:44.237Z,124.77
2018-03-06T21:02:10.958Z,149.33
2018-03-06T21:04:37.598Z,119.67
2018-03-06T21:07:04.308Z,138.63
2018-03-06T21:09:41.028Z,124.70
2018-03-06T21:12:08.284Z,117.63
2018-03-06T21:14:36.897Z,136.53
2018-03-06T21:17:04.009Z,100.60
2018-03-06T21:19:30.304Z,123.33
2018-03-06T21:21:56.963Z,143.30
2018-03-06T21:24:23.228Z,133.63
2018-03-06T21:26:49.492Z,121.63
2018-03-06T21:29:15.772Z,121.73
2018-03-06T21:31:42.056Z,111.57
2018-03-06T21:34:10.797Z,115.43
2018-03-06T21:36:38.653Z,119.50
2018-03-06T21:39:07.099Z,110.93
2018-03-06T21:41:34.400Z,104.27
2018-03-06T21:44:00.722Z,103.90
2018-03-06T21:46:27.231Z,106.03
2018-03-06T21:48:53.693Z,110.40
2018-03-06T21:51:20.004Z,95.17
2018-03-06T21:53:53.170Z,100.97
2018-03-06T21:56:19.862Z,106.73
2018-03-06T21:58:46.282Z,95.97
2018-03-06T22:01:12.788Z,102.50
2018-03-06T22:03:39.921Z,114.00
2018-03-06T22:06:06.802Z,101.30
2018-03-06T22:08:33.719Z,115.57
2018-03-06T22:11:00.078Z,102.53
2018-03-06T22:13:27.282Z,102.60
2018-03-06T22:16:13.554Z,98.10
2018-03-06T22:18:39.914Z,102.40
2018-03-06T22:21:06.195Z,78.73
2018-03-06T22:23:32.598Z,82.67
2018-03-06T22:25:58.959Z,93.37
2018-03-06T22:28:25.390Z,94.30
2018-03-06T22:30:51.693Z,87.80
2018-03-06T22:33:18.083Z,84.53
2018-03-06T22:35:45.130Z,89.53
2018-03-06T22:38:12.141Z,90.27
2018-03-06T22:40:38.615Z,86.87
2018-03-06T22:43:04.880Z,80.53
2018-03-06T22:45:31.201Z,82.67
2018-03-06T22:47:58.298Z,78.73
2018-03-06T22:50:24.557Z,74.27
2018-03-06T22:52:50.826Z,82.00
2018-03-06T22:55:17.137Z,81.17
2018-03-06T22:57:43.510Z,71.73
2018-03-06T23:00:10.541Z,75.93
2018-03-06T23:02:36.791Z,74.50
2018-03-06T23:05:03.125Z,68.90
2018-03-06T23:07:29.446Z,69.87
2018-03-06T23:09:55.736Z,66.73
2018-03-06T23:12:22.045Z,63.37
2018-03-06T23:14:48.331Z,67.90
2018-03-06T23:17:15.356Z,73.67
2018-03-06T23:19:41.643Z,59.23
2018-03-06T23:22:07.918Z,66.13
2018-03-06T23:24:34.230Z,70.80
2018-03-06T23:27:00.501Z,68.93
2018-03-06T23:29:26.855Z,63.10
2018-03-06T23:31:53.161Z,58.00
2018-03-06T23:34:20.182Z,60.20
2018-03-06T23:36:47.378Z,61.43
2018-03-06T23:39:13.694Z,67.47
2018-03-06T23:41:40.055Z,63.57
2018-03-06T23:44:07.061Z,63.63
2018-03-06T23:46:33.346Z,58.60
2018-03-06T23:48:59.628Z,59.97
2018-03-06T23:51:25.977Z,59.57
2018-03-06T23:53:52.261Z,70.07
2018-03-06T23:56:18.555Z,63.83
2018-03-06T23:58:44.842Z,58.77
